INFORMACIÓN METAR y TAF
METAR FOR GCLA
ADDS - METARS form results

(0340 UTC 18 October 2017)
Data provider http://aviationweather.gov/adds/metars/
 
METAR text: GCLA 180330Z AUTO VRB03KT 9999 NCD 21/13 Q1023
Conditions at: GCLA (LA PALMA AIRPORT, ES) observed 0330 UTC 18 October 2017
Temperature: 21.0°C (70°F)
Dewpoint: 13.0°C (55°F) [RH = 60%]
Pressure (altimeter): 30.21 inches Hg (1023.0 mb)
Winds: variable direction winds at 3 MPH (3 knots; 1.6 m/s)
Visibility: 6 or more miles (10+ km)
Ceiling: at least 12,000 feet AGL
Clouds: sky clear below 12,000 feet AGL
Weather: no significant weather observed at this time

METAR text: GCLA 180300Z AUTO 30004KT 240V340 9999 NCD 21/14 Q1023
Conditions at: GCLA (LA PALMA AIRPORT, ES) observed 0300 UTC 18 October 2017
Temperature: 21.0°C (70°F)
Dewpoint: 14.0°C (57°F) [RH = 64%]
Pressure (altimeter): 30.21 inches Hg (1023.0 mb)
Winds: from the WNW (300 degrees) at 5 MPH (4 knots; 2.1 m/s)
Visibility: 6 or more miles (10+ km)
Ceiling: at least 12,000 feet AGL
Clouds: sky clear below 12,000 feet AGL
Weather: no significant weather observed at this time

Forecast for: GCLA (LA PALMA AIRPORT, ES)
Text: TAF GCLA 180200Z 1803/1903 02009KT 9999 SCT025 TX26/1813Z TN21/1806Z
Forecast period: 0300 UTC 18 October 2017 to 0300 UTC 19 October 2017
Forecast type: FROM: standard forecast or significant change
Winds: from the NNE (20 degrees) at 10 MPH (9 knots; 4.7 m/s)
Visibility: 6 or more miles (10+ km)
Clouds: scattered clouds at 2500 feet AGL
Weather: no significant weather forecast for this period

 MAPA DE AEROPUERTO

 INFORMACIÓN DE PISTA
Pista 01 Longitud 7218 ft Ancho 148 ft
Elevación 103 ft Umbral desplazado 0 ft Rumbo de pista 359
Pista 19 Longitud 7218 ft Ancho 148 ft
Elevación 65 ft Umbral desplazado 0 ft Rumbo de pista 179

 FRECUANCIAS DEL AEROPUERTO
Tipo APP Nombre CANARIAS A Frecuencia 126.1 MHZ
Tipo ATIS Nombre INFO Frecuencia 118.6 MHZ
Tipo GND Nombre GND Frecuencia 121.8 MHZ
Tipo TWR Nombre TWR Frecuencia 118.9 MHZ

 RADIO AYUDAS DEL AEROPUERTO
Tipo DME Nombre La Palma Frecuencia 112400 KHZ
Tipo NDB Nombre La Palma Frecuencia 389 KHZ



Nuestro objetivo, educar a través de la simulación aérea y las redes de vuelo on line la cultura aeronáutica y el conocimiento técnico y operativo de volar un avión comercial; Ayudar en la formación de personas y o profesionales de aquellos que desea llegar a ser piloto privado o de líneas aéreas, militar, controlador aéreo, o conocer el mundo del tráfico aéreo, la simulación aérea, el vuelo, y todo lo referente con la aeronáutica.

Copyright 2006 - 2017
Clickair-Va desde 2006 son marcas registradas con permiso de Vueling S.A
Patrocinado por ACAE
Los foros de Clickair VA son foros privados para los miembros de la VA

Powered by Virtual Airlines Manager